Time;durP1;ratioP1;P1;durP2;ratioP2;P2;SDS_P1;SDS_P2;PMS_P1;PMS_P2;Temp;Humidity;BMP_temperature;BMP_pressure;BME280_temperature;BME280_humidity;BME280_pressure;Samples;Min_cycle;Max_cycle;Signal;HPM_P1;HPM_P2
2023/03/21 00:00:13;;;;;;;21.37;12.97;;;;;;;8.89;100.00;101542.41;5010026;28;20444;-77
2023/03/21 00:02:38;;;;;;;22.07;14.20;;;;;;;8.84;100.00;101543.97;5009402;28;20056;-77
2023/03/21 00:05:04;;;;;;;18.87;13.07;;;;;;;8.85;100.00;101538.38;5010677;28;20496;-77
2023/03/21 00:07:29;;;;;;;19.33;13.50;;;;;;;8.78;100.00;101546.41;5009907;28;20497;-77
2023/03/21 00:09:55;;;;;;;21.20;14.83;;;;;;;8.83;100.00;101531.50;5010645;28;20969;-77
2023/03/21 00:12:20;;;;;;;19.33;14.37;;;;;;;8.77;100.00;101536.63;5010478;28;20112;-77
2023/03/21 00:14:46;;;;;;;19.07;13.97;;;;;;;8.77;100.00;101538.47;5010947;28;20889;-77
2023/03/21 00:17:11;;;;;;;20.40;13.87;;;;;;;8.73;100.00;101534.44;5009639;28;20033;-77
2023/03/21 00:19:37;;;;;;;21.23;14.27;;;;;;;8.70;100.00;101538.34;5010238;28;20033;-77
2023/03/21 00:22:03;;;;;;;20.73;14.03;;;;;;;8.67;100.00;101527.09;5010577;28;20021;-77
2023/03/21 00:24:29;;;;;;;21.73;14.77;;;;;;;8.61;100.00;101529.50;5010154;28;20041;-77
2023/03/21 00:26:55;;;;;;;22.63;15.10;;;;;;;8.65;100.00;101523.72;5010540;28;20041;-77
2023/03/21 00:29:20;;;;;;;21.93;15.23;;;;;;;8.68;100.00;101526.06;5010196;28;20075;-77
2023/03/21 00:31:47;;;;;;;22.73;16.23;;;;;;;8.61;100.00;101517.84;5009800;28;20164;-77
2023/03/21 00:34:12;;;;;;;26.47;16.80;;;;;;;8.63;100.00;101520.38;5005582;28;20653;-77
2023/03/21 00:36:38;;;;;;;22.73;15.40;;;;;;;8.56;100.00;101522.97;5009964;28;20076;-77
2023/03/21 00:39:05;;;;;;;22.47;15.93;;;;;;;8.59;100.00;101525.28;5010155;28;20029;-77
2023/03/21 00:41:30;;;;;;;20.90;15.80;;;;;;;8.56;100.00;101517.56;5009853;28;20494;-77
2023/03/21 00:43:56;;;;;;;24.30;16.30;;;;;;;8.58;100.00;101512.78;5009541;28;20159;-77
2023/03/21 00:46:21;;;;;;;21.97;16.73;;;;;;;8.54;100.00;101509.63;5009217;28;20040;-77
2023/03/21 00:48:47;;;;;;;22.93;16.80;;;;;;;8.51;100.00;101514.56;5010534;28;20576;-77
2023/03/21 00:51:25;;;;;;;23.93;16.43;;;;;;;8.50;100.00;101507.47;5008612;28;20932;-77
2023/03/21 00:53:55;;;;;;;24.47;17.70;;;;;;;8.48;100.00;101504.94;5008551;28;20037;-77
2023/03/21 00:56:21;;;;;;;25.03;17.90;;;;;;;8.51;100.00;101498.34;5009994;28;20131;-77
2023/03/21 00:58:46;;;;;;;24.33;16.97;;;;;;;8.49;100.00;101495.00;5009468;28;20038;-77
2023/03/21 01:01:12;;;;;;;25.87;18.23;;;;;;;8.45;100.00;101489.13;5009868;28;20167;-77
2023/03/21 01:03:41;;;;;;;25.10;17.63;;;;;;;8.49;100.00;101487.72;5009330;28;20091;-77
2023/03/21 01:06:12;;;;;;;28.07;18.00;;;;;;;8.45;100.00;101489.13;5008691;28;20044;-77
2023/03/21 01:08:40;;;;;;;23.33;16.93;;;;;;;8.49;100.00;101486.91;5009152;28;20111;-77
2023/03/21 01:11:10;;;;;;;23.30;16.33;;;;;;;8.45;100.00;101481.84;5010040;28;20029;-77
2023/03/21 01:13:35;;;;;;;23.43;15.97;;;;;;;8.47;100.00;101475.44;5009776;28;20028;-77
2023/03/21 01:16:04;;;;;;;26.33;15.97;;;;;;;8.50;100.00;101478.63;5009800;28;20517;-77
2023/03/21 01:18:30;;;;;;;22.87;14.37;;;;;;;8.50;100.00;101464.25;5009414;28;20554;-77
2023/03/21 01:20:57;;;;;;;22.87;14.47;;;;;;;8.54;100.00;101466.41;5010260;28;20033;-77
2023/03/21 01:23:24;;;;;;;21.33;13.90;;;;;;;8.55;100.00;101465.38;5009097;28;20033;-77
2023/03/21 01:25:52;;;;;;;23.17;14.00;;;;;;;8.55;100.00;101469.94;5010552;28;20075;-80
2023/03/21 01:28:17;;;;;;;19.47;13.20;;;;;;;8.57;100.00;101465.22;5011013;28;20034;-80
2023/03/21 01:30:50;;;;;;;20.87;12.87;;;;;;;8.57;100.00;101465.22;5009933;28;21015;-80
2023/03/21 01:33:17;;;;;;;25.07;13.93;;;;;;;8.58;100.00;101464.19;5010474;28;20430;-80
2023/03/21 01:35:43;;;;;;;22.43;13.13;;;;;;;8.58;100.00;101453.38;5011723;28;20053;-80
2023/03/21 01:38:08;;;;;;;22.97;13.33;;;;;;;8.63;100.00;101455.53;5010720;28;20080;-80
2023/03/21 01:40:34;;;;;;;20.57;12.20;;;;;;;8.63;100.00;101450.97;5010492;28;20029;-80
2023/03/21 01:43:00;;;;;;;22.83;12.60;;;;;;;8.64;100.00;101446.41;5008815;28;20374;-80
2023/03/21 01:46:00;;;;;;;18.83;12.07;;;;;;;8.68;100.00;101443.16;5008132;28;20032;-80
2023/03/21 01:48:27;;;;;;;24.43;12.37;;;;;;;8.66;100.00;101434.38;5009447;28;20044;-80
2023/03/21 01:50:54;;;;;;;19.33;11.90;;;;;;;8.68;100.00;101436.91;5009721;28;20124;-80
2023/03/21 01:53:28;;;;;;;20.30;11.80;;;;;;;8.68;100.00;101432.34;5005262;28;20041;-80
2023/03/21 01:56:00;;;;;;;21.95;11.93;;;;;;;8.69;100.00;101428.63;5009680;28;20037;-77
2023/03/21 01:58:26;;;;;;;17.40;11.90;;;;;;;8.70;100.00;101435.69;5009958;28;20044;-77
2023/03/21 02:00:54;;;;;;;20.17;11.10;;;;;;;8.71;100.00;101428.44;5013495;28;20041;-77
2023/03/21 02:03:19;;;;;;;18.93;11.33;;;;;;;8.75;100.00;101427.03;5012404;28;20077;-77
2023/03/21 02:06:01;;;;;;;22.60;13.07;;;;;;;8.74;100.00;101425.34;5013121;28;20194;-77
2023/03/21 02:08:31;;;;;;;22.83;13.67;;;;;;;8.76;100.00;101417.91;5009277;28;20036;-77
2023/03/21 02:10:57;;;;;;;22.63;12.63;;;;;;;8.75;100.00;101411.66;5012983;28;20045;-77
2023/03/21 02:13:23;;;;;;;19.03;11.20;;;;;;;8.74;100.00;101411.84;5012637;28;20100;-77
2023/03/21 02:16:00;;;;;;;19.30;11.53;;;;;;;8.75;100.00;101408.13;5013300;28;20030;-77
2023/03/21 02:18:58;;;;;;;19.27;10.70;;;;;;;8.73;100.00;101411.03;5012872;28;20083;-80
2023/03/21 02:21:42;;;;;;;19.93;10.80;;;;;;;8.77;100.00;101403.38;5013814;28;20044;-80
2023/03/21 02:24:21;;;;;;;20.13;11.07;;;;;;;8.74;100.00;101403.75;5013307;28;20119;-80
2023/03/21 02:26:56;;;;;;;17.93;10.60;;;;;;;8.73;100.00;101396.66;5014219;28;20036;-80
2023/03/21 02:29:34;;;;;;;;;;;;;;;8.93;100.00;101403.19;5012627;28;20079;-77
2023/03/21 02:32:03;;;;;;;18.10;10.50;;;;;;;8.78;100.00;101394.25;5012774;28;19925;-77
2023/03/21 02:34:31;;;;;;;19.27;11.43;;;;;;;8.74;100.00;101388.38;5011789;28;20136;-77
2023/03/21 02:37:05;;;;;;;20.33;11.63;;;;;;;8.76;100.00;101385.50;5012878;28;20076;-77
2023/03/21 02:39:35;;;;;;;18.20;10.10;;;;;;;8.74;100.00;101384.84;5012067;28;20025;-77
2023/03/21 02:42:07;;;;;;;21.07;11.17;;;;;;;8.74;100.00;101388.38;5012847;28;20025;-80
2023/03/21 02:44:42;;;;;;;17.83;10.10;;;;;;;8.73;100.00;101375.03;5012896;28;20033;-80
2023/03/21 02:47:29;;;;;;;19.75;10.35;;;;;;;8.79;100.00;101385.13;5013668;28;20421;-80
2023/03/21 02:50:02;;;;;;;17.43;9.90;;;;;;;8.74;100.00;101379.44;5013308;28;20522;-80
2023/03/21 02:52:32;;;;;;;18.60;10.53;;;;;;;8.71;100.00;101380.63;5007729;28;21495;-80
2023/03/21 02:54:59;;;;;;;19.73;9.90;;;;;;;8.74;100.00;101379.44;5012699;28;20481;-80
2023/03/21 02:57:25;;;;;;;19.27;10.53;;;;;;;8.72;100.00;101379.63;5013067;28;21820;-80
2023/03/21 02:59:53;;;;;;;17.27;9.83;;;;;;;8.69;100.00;101373.72;5012613;28;20042;-80
2023/03/21 03:02:24;;;;;;;18.50;9.93;;;;;;;8.73;100.00;101373.19;5013808;28;20030;-80
2023/03/21 03:04:49;;;;;;;17.37;9.77;;;;;;;8.68;100.00;101370.22;5012793;28;20081;-80
2023/03/21 03:07:27;;;;;;;17.93;9.83;;;;;;;8.70;100.00;101370.03;5011680;28;21807;-81
2023/03/21 03:10:01;;;;;;;17.20;9.67;;;;;;;8.70;100.00;101376.25;5012518;28;20036;-80
2023/03/21 03:12:44;;;;;;;18.95;10.63;;;;;;;8.67;100.00;101365.00;5012828;28;20554;-80
2023/03/21 03:15:27;;;;;;;17.73;10.47;;;;;;;8.68;100.00;101366.69;5012652;28;20037;-77
2023/03/21 03:18:13;;;;;;;19.20;10.27;;;;;;;8.70;100.00;101370.84;5012270;28;21803;-77
2023/03/21 03:20:56;;;;;;;20.83;11.57;;;;;;;8.67;100.00;101359.59;5011503;28;20060;-77
2023/03/21 03:23:38;;;;;;;19.77;11.17;;;;;;;8.66;100.00;101358.72;5012370;28;20121;-80
2023/03/21 03:26:28;;;;;;;18.27;10.07;;;;;;;8.70;100.00;101365.44;5011738;28;20029;-80
2023/03/21 03:29:00;;;;;;;19.40;11.00;;;;;;;8.70;100.00;101357.34;5007495;28;20041;-80
2023/03/21 03:31:31;;;;;;;18.50;10.50;;;;;;;8.67;100.00;101354.19;5012739;28;20029;-80
2023/03/21 03:34:01;;;;;;;17.57;10.80;;;;;;;8.66;100.00;101357.91;5012847;28;20030;-80
2023/03/21 03:36:34;;;;;;;18.97;10.97;;;;;;;8.64;100.00;101349.16;5012704;28;20116;-80
2023/03/21 03:39:03;;;;;;;20.17;11.20;;;;;;;8.63;100.00;101351.00;5012829;28;20037;-80
2023/03/21 03:41:32;;;;;;;19.40;11.07;;;;;;;8.63;100.00;101347.50;5013010;28;20284;-80
2023/03/21 03:44:00;;;;;;;18.93;11.67;;;;;;;8.61;100.00;101340.41;5012883;28;20044;-80
2023/03/21 03:46:51;;;;;;;18.83;10.77;;;;;;;8.61;100.00;101348.50;5012220;28;20167;-80
2023/03/21 03:49:21;;;;;;;21.00;11.10;;;;;;;8.61;100.00;101342.28;5012635;28;20038;-80
2023/03/21 03:51:56;;;;;;;20.17;11.13;;;;;;;8.66;100.00;101339.81;5012290;28;20029;-80
2023/03/21 03:54:27;;;;;;;18.50;11.65;;;;;;;8.61;100.00;101336.88;5012187;28;20069;-80
2023/03/21 03:56:54;;;;;;;19.77;11.13;;;;;;;8.59;100.00;101338.91;5011288;28;20101;-77
2023/03/21 03:59:23;;;;;;;19.70;11.53;;;;;;;8.59;100.00;101330.81;5010757;28;20155;-77
2023/03/21 04:01:49;;;;;;;21.90;11.40;;;;;;;8.58;100.00;101335.38;5010148;28;20056;-77
2023/03/21 04:04:15;;;;;;;19.57;11.77;;;;;;;8.57;100.00;101333.69;5011186;28;20025;-77
2023/03/21 04:06:44;;;;;;;19.23;11.70;;;;;;;8.61;100.00;101326.06;5009489;28;20188;-77
2023/03/21 04:09:10;;;;;;;18.93;11.13;;;;;;;8.57;100.00;101333.69;5008400;28;20107;-77
2023/03/21 04:11:35;;;;;;;20.00;11.37;;;;;;;8.59;100.00;101331.66;5010445;28;20954;-77
2023/03/21 04:14:01;;;;;;;18.67;10.70;;;;;;;8.58;100.00;101335.38;5010183;28;20034;-77
2023/03/21 04:16:27;;;;;;;19.67;10.53;;;;;;;8.59;100.00;101331.66;5011042;28;20036;-77
2023/03/21 04:18:52;;;;;;;22.27;11.53;;;;;;;8.58;100.00;101329.97;5009651;28;20087;-77
2023/03/21 04:21:18;;;;;;;22.10;11.37;;;;;;;8.60;100.00;101318.97;5006509;28;20978;-77
2023/03/21 04:23:44;;;;;;;18.90;11.10;;;;;;;8.58;100.00;101326.41;5010789;28;20438;-77
2023/03/21 04:26:09;;;;;;;19.50;11.40;;;;;;;8.55;100.00;101316.00;5010540;28;20060;-77
2023/03/21 04:28:35;;;;;;;19.50;11.30;;;;;;;8.55;100.00;101326.81;5010969;28;20122;-77
2023/03/21 04:31:01;;;;;;;19.10;11.50;;;;;;;8.55;100.00;101316.81;5010152;28;20021;-77
2023/03/21 04:33:27;;;;;;;20.33;11.13;;;;;;;8.55;100.00;101313.28;5009824;28;20044;-77
2023/03/21 04:35:55;;;;;;;20.60;11.53;;;;;;;8.57;100.00;101314.78;5010319;28;20057;-77
2023/03/21 04:38:22;;;;;;;17.63;10.97;;;;;;;8.55;100.00;101310.59;5010366;28;20037;-77
2023/03/21 04:40:47;;;;;;;20.00;11.47;;;;;;;8.54;100.00;101309.78;5010022;28;20084;-77
2023/03/21 04:43:13;;;;;;;20.10;11.80;;;;;;;8.57;100.00;101306.69;5010511;28;20047;-77
2023/03/21 04:45:38;;;;;;;20.70;11.50;;;;;;;8.58;100.00;101312.91;5009790;28;20037;-77
2023/03/21 04:48:04;;;;;;;22.33;12.83;;;;;;;8.56;100.00;101305.00;5009904;28;20030;-77
2023/03/21 04:50:31;;;;;;;22.17;12.10;;;;;;;8.54;100.00;101304.38;5008660;28;20030;-77
2023/03/21 04:52:56;;;;;;;24.63;12.77;;;;;;;8.53;100.00;101299.97;5010278;28;20458;-77
2023/03/21 04:55:23;;;;;;;23.20;12.60;;;;;;;8.54;100.00;101290.00;5009717;28;20049;-77
2023/03/21 04:57:49;;;;;;;20.20;11.63;;;;;;;8.55;100.00;101297.09;5010352;28;20025;-77
2023/03/21 05:00:15;;;;;;;18.40;10.97;;;;;;;8.58;100.00;101294.00;5009875;28;20489;-77
2023/03/21 05:02:41;;;;;;;21.13;11.97;;;;;;;8.63;100.00;101285.34;5003495;28;20029;-77
2023/03/21 05:05:10;;;;;;;23.03;12.40;;;;;;;8.60;100.00;101295.50;5009784;28;20079;-77
2023/03/21 05:07:36;;;;;;;20.87;11.40;;;;;;;8.59;100.00;101285.75;5009956;28;20390;-77
2023/03/21 05:10:02;;;;;;;20.70;11.40;;;;;;;8.60;100.00;101294.66;5009267;28;20040;-77
2023/03/21 05:12:27;;;;;;;21.37;11.67;;;;;;;8.63;100.00;101290.75;5006383;28;20034;-77
2023/03/21 05:14:52;;;;;;;20.23;11.10;;;;;;;8.61;100.00;101291.78;5009930;28;20041;-77
2023/03/21 05:17:22;;;;;;;20.30;11.37;;;;;;;8.63;100.00;101285.34;5010759;28;20048;-80
2023/03/21 05:19:49;;;;;;;18.67;11.17;;;;;;;8.64;100.00;101281.63;5010810;28;20041;-80
2023/03/21 05:22:18;;;;;;;18.87;11.60;;;;;;;8.63;100.00;101278.06;5011289;28;20026;-80
2023/03/21 05:24:48;;;;;;;18.87;11.77;;;;;;;8.63;100.00;101290.75;5010762;28;20097;-80
2023/03/21 05:27:33;;;;;;;21.63;11.43;;;;;;;8.63;100.00;101279.94;5009744;28;20120;-81
2023/03/21 05:30:04;;;;;;;;;;;;;;;8.74;100.00;101291.13;5010773;28;20048;-80
2023/03/21 05:32:29;;;;;;;20.27;11.20;;;;;;;8.67;100.00;101283.94;5011683;28;19955;-80
2023/03/21 05:34:55;;;;;;;16.10;10.83;;;;;;;8.67;100.00;101275.84;5016939;28;20794;-81
2023/03/21 05:37:20;;;;;;;21.83;11.50;;;;;;;8.68;100.00;101285.63;5017540;28;20037;-80
2023/03/21 05:39:46;;;;;;;19.60;10.93;;;;;;;8.68;100.00;101282.94;5017710;28;20140;-80
2023/03/21 05:42:11;;;;;;;20.10;10.87;;;;;;;8.67;100.00;101283.94;5015867;28;20117;-80
2023/03/21 05:44:39;;;;;;;20.60;11.20;;;;;;;8.66;100.00;101276.88;5017808;28;20095;-80
2023/03/21 05:47:05;;;;;;;20.83;11.83;;;;;;;8.68;100.00;101281.06;4999237;28;20021;-80
2023/03/21 05:49:30;;;;;;;20.47;11.40;;;;;;;8.69;100.00;101279.19;5016585;28;20162;-80
2023/03/21 05:51:55;;;;;;;23.23;11.73;;;;;;;8.69;100.00;101276.47;5016911;28;20064;-80
2023/03/21 05:54:21;;;;;;;22.23;11.23;;;;;;;8.73;100.00;101285.88;5017139;28;20513;-80
2023/03/21 05:56:46;;;;;;;20.40;10.60;;;;;;;8.72;100.00;101276.97;5017039;28;20037;-80
2023/03/21 05:59:12;;;;;;;21.53;11.00;;;;;;;8.74;100.00;101279.47;5017396;28;20033;-80
2023/03/21 06:01:37;;;;;;;18.80;10.50;;;;;;;8.72;100.00;101276.13;5017365;28;20152;-80
2023/03/21 06:04:02;;;;;;;22.93;11.33;;;;;;;8.72;100.00;101273.44;5002011;28;20040;-80
2023/03/21 06:06:28;;;;;;;19.47;10.30;;;;;;;8.72;100.00;101281.53;5000434;28;20040;-80
2023/03/21 06:08:53;;;;;;;19.70;10.20;;;;;;;8.74;100.00;101277.63;5016197;28;20041;-77
2023/03/21 06:11:24;;;;;;;21.47;11.63;;;;;;;8.75;100.00;101276.56;5014223;28;20119;-77
2023/03/21 06:13:50;;;;;;;19.80;10.83;;;;;;;8.76;100.00;101277.41;5016361;28;20029;-77
2023/03/21 06:16:15;;;;;;;20.43;10.07;;;;;;;8.78;100.00;101276.22;5015642;28;20095;-77
2023/03/21 06:18:41;;;;;;;21.13;10.67;;;;;;;8.78;100.00;101269.94;5016163;28;20056;-77
2023/03/21 06:21:06;;;;;;;19.20;10.03;;;;;;;8.81;100.00;101274.97;5014495;28;20033;-77
2023/03/21 06:23:31;;;;;;;18.87;9.60;;;;;;;8.83;100.00;101278.34;5015722;28;20029;-77
2023/03/21 06:25:57;;;;;;;18.20;9.73;;;;;;;8.83;100.00;101272.94;5015650;28;20040;-77
2023/03/21 06:28:22;;;;;;;20.10;9.77;;;;;;;8.86;100.00;101286.06;5014854;28;20087;-77
2023/03/21 06:30:48;;;;;;;17.83;9.27;;;;;;;8.89;100.00;101282.97;5015893;28;20033;-77
2023/03/21 06:33:13;;;;;;;19.43;9.80;;;;;;;8.90;100.00;101283.81;5015568;28;20087;-77
2023/03/21 06:35:39;;;;;;;17.63;9.33;;;;;;;8.94;100.00;101287.81;5016019;28;20083;-77
2023/03/21 06:38:04;;;;;;;18.17;9.30;;;;;;;8.94;100.00;101279.72;5016513;28;20485;-77
2023/03/21 06:40:30;;;;;;;18.40;8.90;;;;;;;8.99;100.00;101282.69;5014644;28;20025;-77
2023/03/21 06:42:55;;;;;;;17.47;8.97;;;;;;;9.01;100.00;101290.59;5016321;28;20504;-77
2023/03/21 06:45:20;;;;;;;20.07;8.90;;;;;;;9.01;100.00;101283.31;5011476;28;20037;-77
2023/03/21 06:47:46;;;;;;;16.90;8.70;;;;;;;9.01;100.00;101296.81;5013306;28;20105;-77
2023/03/21 06:50:11;;;;;;;20.83;8.33;;;;;;;8.97;100.00;101276.63;5013659;28;20091;-80
2023/03/21 06:52:37;;;;;;;17.43;8.67;;;;;;;8.91;100.00;101280.91;5013100;28;20037;-80
2023/03/21 06:55:02;;;;;;;20.57;8.90;;;;;;;8.95;100.00;101287.63;5010550;28;20037;-80
2023/03/21 06:57:27;;;;;;;14.83;8.40;;;;;;;8.91;100.00;101280.91;5011934;28;20030;-80
2023/03/21 06:59:53;;;;;;;19.00;8.20;;;;;;;8.96;100.00;101285.75;5012012;28;20455;-77
2023/03/21 07:02:18;;;;;;;19.33;8.37;;;;;;;8.91;100.00;101280.09;5012199;28;20484;-77
2023/03/21 07:04:44;;;;;;;18.37;8.07;;;;;;;8.98;100.00;101285.56;5012844;28;20025;-77
2023/03/21 07:07:09;;;;;;;18.20;8.30;;;;;;;8.94;100.00;101287.81;5012121;28;20156;-77
2023/03/21 07:09:35;;;;;;;16.50;8.00;;;;;;;8.92;100.00;101288.00;5010962;28;20025;-77
2023/03/21 07:12:00;;;;;;;16.97;8.40;;;;;;;8.91;100.00;101296.31;5011743;28;20098;-77
2023/03/21 07:14:26;;;;;;;21.20;10.03;;;;;;;8.94;100.00;101290.50;5011619;28;20213;-80
2023/03/21 07:16:51;;;;;;;19.30;9.93;;;;;;;8.92;100.00;101298.81;5012373;28;20128;-80
2023/03/21 07:19:17;;;;;;;24.73;11.00;;;;;;;8.98;100.00;101299.09;5011542;28;20029;-80
2023/03/21 07:21:42;;;;;;;22.90;11.60;;;;;;;9.01;100.00;101306.81;5010472;28;20132;-80
2023/03/21 07:24:07;;;;;;;17.87;8.63;;;;;;;9.07;100.00;101306.03;5013158;28;20037;-80
2023/03/21 07:26:33;;;;;;;20.57;9.87;;;;;;;9.04;100.00;101307.25;5012344;28;20086;-80
2023/03/21 07:28:58;;;;;;;18.73;8.90;;;;;;;9.09;100.00;101306.69;5011256;28;20025;-77
2023/03/21 07:31:25;;;;;;;18.97;9.17;;;;;;;9.05;100.00;101302.69;5010193;28;20119;-77
2023/03/21 07:33:51;;;;;;;18.60;9.70;;;;;;;9.00;100.00;101311.34;5012030;28;20040;-77
2023/03/21 07:36:20;;;;;;;20.13;10.40;;;;;;;9.00;100.00;101307.84;5010654;28;20099;-79
2023/03/21 07:38:45;;;;;;;23.00;11.67;;;;;;;9.02;100.00;101308.50;5010912;28;20029;-80
2023/03/21 07:41:12;;;;;;;21.13;11.03;;;;;;;9.06;100.00;101310.63;5007864;28;20991;-80
2023/03/21 07:43:37;;;;;;;22.10;10.87;;;;;;;9.02;100.00;101312.03;5010080;28;20037;-80
2023/03/21 07:46:03;;;;;;;20.53;9.93;;;;;;;9.01;100.00;101304.94;5011277;28;20075;-80
2023/03/21 07:48:30;;;;;;;22.33;10.43;;;;;;;8.97;100.00;101300.13;5010838;28;20115;-80
2023/03/21 07:50:55;;;;;;;18.47;9.30;;;;;;;9.03;100.00;101305.59;5010320;28;20176;-80
2023/03/21 07:53:20;;;;;;;17.70;9.00;;;;;;;8.98;100.00;101301.78;5009833;28;20463;-80
2023/03/21 07:55:55;;;;;;;17.77;8.90;;;;;;;9.01;100.00;101301.41;5009371;28;20157;-80
2023/03/21 07:58:21;;;;;;;19.95;10.50;;;;;;;9.04;100.00;101301.03;5011268;28;20087;-80
2023/03/21 08:00:47;;;;;;;19.80;10.43;;;;;;;8.99;100.00;101298.03;5010899;28;20041;-80
2023/03/21 08:03:13;;;;;;;24.33;10.63;;;;;;;8.98;100.00;101301.78;5010809;28;20099;-78
2023/03/21 08:05:39;;;;;;;22.40;10.90;;;;;;;8.92;100.00;101293.41;5010803;28;20416;-78
2023/03/21 08:08:05;;;;;;;21.13;10.73;;;;;;;8.90;100.00;101294.63;5010951;28;20164;-77
2023/03/21 08:10:31;;;;;;;20.87;10.90;;;;;;;8.91;100.00;101277.41;5010517;28;20048;-78
2023/03/21 08:12:57;;;;;;;20.03;10.60;;;;;;;8.94;100.00;101274.31;5011135;28;21774;-78
2023/03/21 08:15:22;;;;;;;22.60;11.17;;;;;;;8.95;100.00;101276.81;5004152;28;20041;-78
2023/03/21 08:17:48;;;;;;;23.20;11.43;;;;;;;9.01;100.00;101269.81;5009245;28;20079;-78
2023/03/21 08:20:16;;;;;;;19.20;10.37;;;;;;;9.02;100.00;101260.66;5009713;28;20408;-78
2023/03/21 08:22:43;;;;;;;21.13;10.20;;;;;;;9.08;100.00;101262.63;5010621;28;20037;-78
2023/03/21 08:25:12;;;;;;;19.67;10.37;;;;;;;9.04;100.00;101264.00;5010652;28;20128;-78
2023/03/21 08:27:40;;;;;;;18.77;10.10;;;;;;;9.06;100.00;101248.44;5010317;28;20485;-80
2023/03/21 08:30:06;;;;;;;18.40;10.53;;;;;;;9.07;100.00;101247.44;5012960;28;21013;-80
2023/03/21 08:32:32;;;;;;;19.37;10.20;;;;;;;9.12;100.00;101244.13;5011089;28;20037;-80
2023/03/21 08:35:00;;;;;;;21.30;11.53;;;;;;;9.14;100.00;101244.78;5011943;28;21776;-80
2023/03/21 08:37:25;;;;;;;20.20;11.57;;;;;;;9.16;100.00;101240.00;5011830;28;20037;-81
2023/03/21 08:39:51;;;;;;;20.73;11.33;;;;;;;9.22;100.00;101243.81;5012323;28;20617;-80
2023/03/21 08:42:17;;;;;;;20.27;11.30;;;;;;;9.28;100.00;101237.63;5011452;28;20040;-81
2023/03/21 08:44:43;;;;;;;21.07;11.60;;;;;;;9.25;100.00;101249.69;5010487;28;20048;-80
2023/03/21 08:47:08;;;;;;;18.93;10.13;;;;;;;9.29;100.00;101252.84;5010805;28;20041;-81
2023/03/21 08:49:34;;;;;;;19.10;10.70;;;;;;;9.35;100.00;101251.22;5011642;28;20384;-82
2023/03/21 08:52:00;;;;;;;17.23;10.33;;;;;;;9.36;100.00;101253.72;5014093;28;20086;-81
2023/03/21 08:54:26;;;;;;;19.00;10.27;;;;;;;9.33;100.00;101245.16;5013323;28;20491;-81
2023/03/21 08:56:52;;;;;;;17.80;9.70;;;;;;;9.34;100.00;101246.84;5013543;28;20056;-82
2023/03/21 08:59:17;;;;;;;19.17;10.30;;;;;;;9.39;100.00;101244.41;5015003;28;20127;-82
2023/03/21 09:01:42;;;;;;;21.63;10.40;;;;;;;9.40;100.00;101235.25;5015622;28;20044;-82
2023/03/21 09:04:09;;;;;;;19.13;9.80;;;;;;;9.42;100.00;101233.19;5011767;28;20037;-79
2023/03/21 09:06:44;;;;;;;17.03;9.57;;;;;;;9.40;100.00;101233.38;5009497;28;20033;-78
2023/03/21 09:09:11;;;;;;;20.00;10.63;;;;;;;9.49;100.00;101231.34;5009720;28;20069;-78
2023/03/21 09:11:37;;;;;;;16.50;9.20;;;;;;;9.43;100.00;101224.88;5009222;28;20052;-77
2023/03/21 09:14:03;;;;;;;17.33;9.60;;;;;;;9.42;100.00;101227.78;5009872;28;20041;-78
2023/03/21 09:16:28;;;;;;;18.57;9.77;;;;;;;9.48;100.00;101224.31;5009341;28;20069;-77
2023/03/21 09:18:55;;;;;;;16.90;10.00;;;;;;;9.47;100.00;101225.31;5009872;28;20037;-77
2023/03/21 09:21:22;;;;;;;18.53;9.90;;;;;;;9.55;100.00;101233.28;5009513;28;20026;-78
2023/03/21 09:23:51;;;;;;;17.17;10.20;;;;;;;9.58;100.00;101219.38;5009864;28;20086;-78
2023/03/21 09:26:20;;;;;;;19.03;10.13;;;;;;;9.62;100.00;101220.66;5008629;28;20037;-78
2023/03/21 09:28:46;;;;;;;16.83;9.93;;;;;;;9.68;100.00;101224.44;5010208;28;20831;-78
2023/03/21 09:31:15;;;;;;;20.43;9.80;;;;;;;9.67;100.00;101224.63;5005527;28;20132;-78
2023/03/21 09:33:41;;;;;;;17.67;10.03;;;;;;;9.72;100.00;101216.78;5009235;28;20060;-78
2023/03/21 09:36:13;;;;;;;18.17;10.33;;;;;;;9.75;100.00;101219.94;5009183;28;20702;-81
2023/03/21 09:38:41;;;;;;;17.27;9.50;;;;;;;9.79;100.00;101212.22;5010000;28;20060;-80
2023/03/21 09:41:26;;;;;;;16.90;10.27;;;;;;;9.83;100.00;101213.50;5009939;28;20029;-81
2023/03/21 09:44:10;;;;;;;16.08;8.73;;;;;;;9.84;100.00;101214.38;5012254;28;20033;-81
2023/03/21 09:46:49;;;;;;;17.17;8.65;;;;;;;9.86;100.00;101202.31;5011750;28;20037;-81
2023/03/21 09:49:24;;;;;;;15.90;8.80;;;;;;;9.89;100.00;101210.03;5012813;28;20037;-82
2023/03/21 09:51:54;;;;;;;15.10;8.47;;;;;;;9.87;100.00;101203.13;5009030;28;20061;-78
2023/03/21 09:54:26;;;;;;;20.00;9.13;;;;;;;9.93;100.00;101203.19;5009125;28;20033;-78
2023/03/21 09:56:56;;;;;;;16.67;8.33;;;;;;;9.92;100.00;101189.84;5008940;28;20029;-78
2023/03/21 09:59:30;;;;;;;19.33;8.30;;;;;;;10.02;100.00;101194.91;5006322;28;20076;-78
2023/03/21 10:01:59;;;;;;;13.45;7.65;;;;;;;10.04;100.00;101187.44;5005692;28;20033;-78
2023/03/21 10:04:26;;;;;;;16.37;8.33;;;;;;;10.08;100.00;101191.41;5005697;28;20037;-78
2023/03/21 10:07:01;;;;;;;14.77;8.00;;;;;;;10.18;100.00;101189.16;5005037;28;20059;-78
2023/03/21 10:09:29;;;;;;;16.00;8.17;;;;;;;10.23;100.00;101186.69;5005596;28;20454;-78
2023/03/21 10:12:02;;;;;;;15.00;8.53;;;;;;;10.27;100.00;101182.53;5005346;28;20628;-78
2023/03/21 10:14:31;;;;;;;17.23;8.50;;;;;;;10.28;100.00;101180.66;5003881;28;20053;-78
2023/03/21 10:17:15;;;;;;;14.17;7.70;;;;;;;10.34;100.00;101177.16;5005566;28;20428;-78
2023/03/21 10:19:45;;;;;;;16.33;7.60;;;;;;;10.42;100.00;101173.47;5006476;28;20037;-78
2023/03/21 10:22:10;;;;;;;15.20;6.90;;;;;;;10.42;100.00;101170.75;5009118;28;20072;-82
2023/03/21 10:24:36;;;;;;;14.77;7.03;;;;;;;10.46;100.00;101177.44;4978925;28;20141;-82
2023/03/21 10:27:04;;;;;;;17.50;7.07;;;;;;;10.52;100.00;101173.91;5012677;28;20731;-82
2023/03/21 10:29:38;;;;;;;15.17;7.40;;;;;;;10.57;100.00;101174.13;5011006;28;20076;-82
2023/03/21 10:32:04;;;;;;;13.65;6.30;;;;;;;10.63;100.00;101164.34;5013143;28;20033;-82
2023/03/21 10:35:08;;;;;;;10.80;6.10;;;;;;;10.66;100.00;101173.94;5010890;28;20056;-82
2023/03/21 10:37:35;;;;;;;15.67;6.50;;;;;;;10.74;100.00;101165.63;4991090;28;20036;-82
2023/03/21 10:40:00;;;;;;;16.60;7.23;;;;;;;10.85;100.00;101165.00;4990403;28;20147;-81
2023/03/21 10:42:29;;;;;;;12.67;6.33;;;;;;;10.91;100.00;101166.91;5002411;28;20775;-82
2023/03/21 10:44:56;;;;;;;14.77;7.20;;;;;;;11.04;100.00;101170.69;5011492;28;20037;-81
2023/03/21 10:47:29;;;;;;;11.47;6.10;;;;;;;11.01;100.00;101166.50;5010027;28;20915;-81
2023/03/21 10:50:12;;;;;;;13.27;6.13;;;;;;;11.02;100.00;101167.34;5010559;28;20038;-82
2023/03/21 10:52:54;;;;;;;11.03;5.70;;;;;;;11.04;100.00;101160.66;5010661;28;20033;-82
2023/03/21 10:55:30;;;;;;;11.43;5.90;;;;;;;11.09;100.00;101173.63;5010720;28;20267;-82
2023/03/21 10:58:01;;;;;;;12.43;5.60;;;;;;;11.15;100.00;101173.63;5010938;28;20527;-82
2023/03/21 11:00:32;;;;;;;10.57;5.27;;;;;;;11.13;100.00;101167.56;5009773;28;20033;-81
2023/03/21 11:02:59;;;;;;;11.47;5.43;;;;;;;11.25;100.00;101173.19;5010539;28;20072;-82
2023/03/21 11:05:26;;;;;;;12.40;5.97;;;;;;;11.28;100.00;101170.06;5007811;28;20393;-78
2023/03/21 11:08:03;;;;;;;11.97;5.90;;;;;;;11.29;100.00;101152.75;5008642;28;20033;-77
2023/03/21 11:11:06;;;;;;;12.77;5.53;;;;;;;11.37;100.00;101165.28;5011436;28;20037;-77
2023/03/21 11:13:40;;;;;;;11.47;5.13;;;;;;;11.49;100.00;101162.75;5011705;28;20041;-78
2023/03/21 11:16:29;;;;;;;12.23;5.45;;;;;;;11.48;100.00;101155.69;5010741;28;20477;-78
2023/03/21 11:19:11;;;;;;;10.30;5.13;;;;;;;11.58;100.00;101149.81;5015088;28;20034;-81